createdAt,value
2019-05-19T00:00:02.926Z,8.47
2019-05-19T00:01:02.478Z,6.84
2019-05-19T00:02:02.436Z,7.2
2019-05-19T00:03:02.864Z,6.74
2019-05-19T00:04:03.041Z,7.42
2019-05-19T00:05:02.505Z,10.36
2019-05-19T00:06:03.086Z,8.15
2019-05-19T00:07:02.533Z,8.4
2019-05-19T00:08:02.979Z,8.89
2019-05-19T00:09:03.355Z,7.43
2019-05-19T00:10:02.940Z,8.21
2019-05-19T00:11:02.566Z,7.55
2019-05-19T00:12:02.938Z,7.58
2019-05-19T00:13:03.193Z,8.97
2019-05-19T00:14:02.748Z,8.62
2019-05-19T00:15:02.441Z,7.88
2019-05-19T00:16:02.673Z,7.05
2019-05-19T00:17:02.605Z,9.33
2019-05-19T00:18:02.501Z,7.86
2019-05-19T00:19:03.102Z,7.61
2019-05-19T00:20:02.365Z,13.51
2019-05-19T00:21:03.138Z,7.15
2019-05-19T00:22:02.687Z,7.94
2019-05-19T00:23:03.260Z,7.94
2019-05-19T00:24:03.390Z,8.29
2019-05-19T00:25:03.376Z,9.71
2019-05-19T00:26:03.002Z,9.49
2019-05-19T00:27:02.648Z,9.82
2019-05-19T00:28:02.385Z,8.96
2019-05-19T00:29:02.636Z,8.24
2019-05-19T00:30:03.293Z,7.28
2019-05-19T00:31:02.562Z,7.31
2019-05-19T00:32:02.602Z,7.69
2019-05-19T00:33:02.647Z,8.98
2019-05-19T00:34:56.730Z,8.98
2019-05-19T00:36:02.798Z,8.24
2019-05-19T00:37:02.718Z,9.58
2019-05-19T00:38:03.113Z,8.13
2019-05-19T00:39:03.005Z,9.11
2019-05-19T00:40:02.927Z,7.71
2019-05-19T00:41:02.420Z,7.71
2019-05-19T00:42:02.722Z,8.79
2019-05-19T00:43:01.824Z,10.59
2019-05-19T00:44:02.578Z,10.59
2019-05-19T00:45:03.190Z,8.75
2019-05-19T00:46:03.208Z,7.46
2019-05-19T00:47:03.148Z,7.46
2019-05-19T00:48:03.269Z,11.94
2019-05-19T00:49:02.617Z,9.5
2019-05-19T00:50:03.190Z,9.5
2019-05-19T00:51:47.607Z,9.5
2019-05-19T00:52:02.924Z,9.5
2019-05-19T00:53:03.507Z,10.11
2019-05-19T00:54:02.693Z,8.99
2019-05-19T00:55:03.410Z,7.75
2019-05-19T00:56:02.610Z,9.95
2019-05-19T00:57:03.554Z,9.71
2019-05-19T00:58:02.850Z,7.61
2019-05-19T00:59:02.711Z,9.01
2019-05-19T01:00:03.126Z,11.92
2019-05-19T01:01:03.339Z,8.76
2019-05-19T01:02:03.432Z,8.96
2019-05-19T01:03:03.317Z,10.7
2019-05-19T01:04:02.775Z,8.52
2019-05-19T01:05:03.321Z,7.92
2019-05-19T01:06:03.115Z,9.59
2019-05-19T01:07:03.448Z,9.98
2019-05-19T01:08:02.897Z,8.88
2019-05-19T01:09:03.163Z,8.74
2019-05-19T01:10:03.538Z,9.94
2019-05-19T01:11:02.727Z,12.08
2019-05-19T01:12:03.113Z,12.3
2019-05-19T01:13:02.559Z,10.9
2019-05-19T01:14:02.727Z,8.03
2019-05-19T01:15:03.183Z,9.1
2019-05-19T01:16:02.600Z,7.45
2019-05-19T01:17:03.318Z,10.88
2019-05-19T01:18:02.582Z,10.42
2019-05-19T01:19:02.526Z,8.18
2019-05-19T01:20:02.768Z,8.58
2019-05-19T01:21:02.333Z,9.56
2019-05-19T01:22:02.287Z,12.31
2019-05-19T01:23:02.947Z,10.15
2019-05-19T01:24:02.409Z,11.39
2019-05-19T01:25:02.979Z,11.6
2019-05-19T01:26:02.549Z,8.26
2019-05-19T01:27:02.823Z,10.55
2019-05-19T01:28:03.164Z,7.1
2019-05-19T01:29:02.761Z,8.09
2019-05-19T01:30:03.066Z,9.96
2019-05-19T01:31:02.651Z,9.39
2019-05-19T01:32:02.691Z,9.39
2019-05-19T01:33:03.180Z,9.31
2019-05-19T01:34:02.748Z,11.05
2019-05-19T01:35:02.863Z,11.05
2019-05-19T01:36:02.802Z,12.86
2019-05-19T01:37:03.026Z,7.81
2019-05-19T01:38:02.353Z,10.56
2019-05-19T01:39:03.140Z,11.56
2019-05-19T01:40:02.810Z,9.96
2019-05-19T01:41:02.646Z,9.76
2019-05-19T01:42:03.159Z,9.76
2019-05-19T01:43:02.455Z,8.04
2019-05-19T01:44:02.460Z,11.38
2019-05-19T01:45:02.610Z,10.6
2019-05-19T01:46:03.071Z,9.78
2019-05-19T01:47:02.463Z,10.1
2019-05-19T01:48:02.882Z,9.33
2019-05-19T01:49:02.477Z,9.96
2019-05-19T01:50:16.795Z,9.55
2019-05-19T01:51:02.122Z,9.24
2019-05-19T01:52:02.857Z,9.96
2019-05-19T01:53:02.809Z,12.09
2019-05-19T01:54:02.875Z,13.23
2019-05-19T01:55:02.803Z,8.97
2019-05-19T01:56:03.086Z,9.91
2019-05-19T01:57:03.086Z,9.94
2019-05-19T01:58:02.404Z,11.38
2019-05-19T01:59:02.819Z,10.81
2019-05-19T02:00:03.574Z,8.05
2019-05-19T02:01:02.815Z,10.37
2019-05-19T02:02:03.401Z,9.88
2019-05-19T02:03:03.182Z,10.01
2019-05-19T02:04:02.785Z,9.05
2019-05-19T02:05:03.348Z,9.02
2019-05-19T02:06:02.510Z,10.35
2019-05-19T02:07:02.997Z,9.73
2019-05-19T02:08:02.338Z,10.63
2019-05-19T02:09:02.822Z,10.02
2019-05-19T02:10:03.198Z,8.72
2019-05-19T02:11:02.816Z,8.72
2019-05-19T02:12:02.871Z,10.29
2019-05-19T02:13:05.093Z,10.29
2019-05-19T02:14:03.045Z,11.59
2019-05-19T02:15:02.713Z,10.75
2019-05-19T02:16:02.880Z,10.75
2019-05-19T02:17:02.493Z,9.48
2019-05-19T02:18:02.555Z,10.08
2019-05-19T02:19:02.824Z,9.24
2019-05-19T02:20:03.439Z,8.69
2019-05-19T02:21:02.661Z,10.32
2019-05-19T02:22:03.402Z,11.7
2019-05-19T02:23:02.685Z,10.45
2019-05-19T02:24:03.084Z,9.98
2019-05-19T02:25:02.772Z,9.52
2019-05-19T02:26:02.913Z,11.82
2019-05-19T02:27:02.248Z,11.3
2019-05-19T02:28:02.845Z,11.15
2019-05-19T02:29:03.173Z,9.53
2019-05-19T02:30:02.899Z,11.62
2019-05-19T02:31:03.060Z,12.58
2019-05-19T02:32:02.452Z,10.75
2019-05-19T02:33:03.030Z,10.25
2019-05-19T02:34:02.522Z,10.88
2019-05-19T02:35:03.009Z,10.05
2019-05-19T02:36:02.390Z,11.45
2019-05-19T02:37:02.365Z,13.14
2019-05-19T02:38:03.362Z,10.91
2019-05-19T02:39:02.522Z,9.85
2019-05-19T02:40:03.216Z,12.26
2019-05-19T02:41:02.498Z,11.56
2019-05-19T02:42:03.153Z,11.73
2019-05-19T02:43:02.399Z,14.26
2019-05-19T02:44:03.541Z,13.82
2019-05-19T02:45:03.212Z,10.74
2019-05-19T02:46:03.067Z,13.18
2019-05-19T02:47:02.491Z,10.72
2019-05-19T02:48:03.046Z,15.32
2019-05-19T02:49:03.359Z,10.21
2019-05-19T02:50:02.627Z,11.7
2019-05-19T02:51:03.194Z,11.71
2019-05-19T02:52:02.501Z,11.72
2019-05-19T02:53:03.462Z,13
2019-05-19T02:54:02.528Z,9.66
2019-05-19T02:55:03.262Z,13.73
2019-05-19T02:56:02.916Z,10.25
2019-05-19T02:57:03.327Z,10.6
2019-05-19T02:58:03.102Z,10.22
2019-05-19T02:59:02.560Z,12.22
2019-05-19T03:00:03.543Z,10.71
2019-05-19T03:01:02.514Z,11.36
2019-05-19T03:02:02.890Z,10.14
2019-05-19T03:03:02.773Z,13.11
2019-05-19T03:04:02.941Z,10.42
2019-05-19T03:05:03.140Z,10.42
2019-05-19T03:06:03.368Z,11.04
2019-05-19T03:07:02.915Z,15.09
2019-05-19T03:08:03.029Z,15.09
2019-05-19T03:09:03.099Z,12.54
2019-05-19T03:10:03.365Z,10.44
2019-05-19T03:11:02.386Z,13.39
2019-05-19T03:12:02.437Z,12.28
2019-05-19T03:13:03.318Z,14.39
2019-05-19T03:14:02.650Z,12.31
2019-05-19T03:15:02.872Z,12.48
2019-05-19T03:16:02.474Z,11.53
2019-05-19T03:17:02.456Z,12.06
2019-05-19T03:18:03.158Z,14.88
2019-05-19T03:19:02.661Z,12.61
2019-05-19T03:20:02.494Z,13.25
2019-05-19T03:21:10.705Z,14.56
2019-05-19T03:22:03.119Z,11.38
2019-05-19T03:23:03.184Z,10.85
2019-05-19T03:24:02.432Z,11.48
2019-05-19T03:25:02.688Z,11.91
2019-05-19T03:26:02.857Z,10.69
2019-05-19T03:27:02.331Z,16.55
2019-05-19T03:28:02.618Z,13.27
2019-05-19T03:29:02.694Z,12.2
2019-05-19T03:30:02.858Z,17.38
2019-05-19T03:31:02.448Z,12.92
2019-05-19T03:32:02.986Z,12.51
2019-05-19T03:33:02.488Z,13.29
2019-05-19T03:34:02.769Z,11.56
2019-05-19T03:35:03.248Z,11.44
2019-05-19T03:36:02.882Z,14.71
2019-05-19T03:37:02.464Z,12.39
2019-05-19T03:38:02.592Z,14.25
2019-05-19T03:39:03.341Z,11.35
2019-05-19T03:40:02.566Z,11.91
2019-05-19T03:41:02.891Z,13.32
2019-05-19T03:42:02.409Z,13.48
2019-05-19T03:43:02.680Z,14.43
2019-05-19T03:44:02.448Z,12.76
2019-05-19T03:45:02.908Z,13.57
2019-05-19T03:46:03.212Z,13.22
2019-05-19T03:47:02.786Z,13.77
2019-05-19T03:48:02.885Z,12.15
2019-05-19T03:49:02.697Z,12.59
2019-05-19T03:50:02.614Z,12.59
2019-05-19T03:51:03.278Z,18.44
2019-05-19T03:52:03.269Z,11.94
2019-05-19T03:53:02.829Z,11.94
2019-05-19T03:54:02.444Z,15.15
2019-05-19T03:55:02.902Z,12.75
2019-05-19T03:56:03.253Z,13.52
2019-05-19T03:57:02.919Z,13.52
2019-05-19T03:58:03.203Z,14.71
2019-05-19T03:59:02.743Z,10.55
2019-05-19T04:00:03.129Z,15
2019-05-19T04:01:02.680Z,11.7
2019-05-19T04:02:03.136Z,13.32
2019-05-19T04:03:03.178Z,14.17
2019-05-19T04:04:02.917Z,10.79
2019-05-19T04:05:02.996Z,11.76
2019-05-19T04:06:02.518Z,13.15
2019-05-19T04:07:03.168Z,12.31
2019-05-19T04:08:02.571Z,11.12
2019-05-19T04:09:03.297Z,12.66
2019-05-19T04:10:02.844Z,13.12
2019-05-19T04:11:03.154Z,13.92
2019-05-19T04:12:03.234Z,11.24
2019-05-19T04:13:02.615Z,13.94
2019-05-19T04:14:02.620Z,12.45
2019-05-19T04:15:02.822Z,14.11
2019-05-19T04:16:03.247Z,11.73
2019-05-19T04:17:02.562Z,13.15
2019-05-19T04:18:03.138Z,11.86
2019-05-19T04:19:02.628Z,12.19
2019-05-19T04:20:02.580Z,14.58
2019-05-19T04:21:02.819Z,14.41
2019-05-19T04:22:03.201Z,17.22
2019-05-19T04:23:02.537Z,13.06
2019-05-19T04:24:02.772Z,15.96
2019-05-19T04:25:03.124Z,13.36
2019-05-19T04:26:02.799Z,13.36
2019-05-19T04:27:02.844Z,12.03
2019-05-19T04:28:02.953Z,14.76
2019-05-19T04:29:03.304Z,12.79
2019-05-19T04:30:02.980Z,15.07
2019-05-19T04:31:02.359Z,12.21
2019-05-19T04:32:02.996Z,12.16
2019-05-19T04:33:03.268Z,19.08
2019-05-19T04:34:02.944Z,13.85
2019-05-19T04:35:03.019Z,12.69
2019-05-19T04:36:02.290Z,14.25
2019-05-19T04:37:02.441Z,15.29
2019-05-19T04:38:03.050Z,16.23
2019-05-19T04:39:02.669Z,12.27
2019-05-19T04:40:03.096Z,15.48
2019-05-19T04:41:02.978Z,12.54
2019-05-19T04:42:02.994Z,12.54
2019-05-19T04:43:03.026Z,12.28
2019-05-19T04:44:02.558Z,12.28
2019-05-19T04:45:02.342Z,14.53
2019-05-19T04:46:02.913Z,13.81
2019-05-19T04:47:02.521Z,12.92
2019-05-19T04:48:02.856Z,15.81
2019-05-19T04:49:03.335Z,15.36
2019-05-19T04:50:02.881Z,12.76
2019-05-19T04:51:02.940Z,13.74
2019-05-19T04:52:06.387Z,12.65
2019-05-19T04:53:02.834Z,16.49
2019-05-19T04:54:02.727Z,14.49
2019-05-19T04:55:03.027Z,12.34
2019-05-19T04:56:03.195Z,11.35
2019-05-19T04:57:01.511Z,20.05
2019-05-19T04:58:03.079Z,13.53
2019-05-19T04:59:02.388Z,14.36
2019-05-19T05:00:03.373Z,15.36
2019-05-19T05:01:02.659Z,18.32
2019-05-19T05:02:02.759Z,13.14
2019-05-19T05:03:03.331Z,15.15
2019-05-19T05:04:02.990Z,15.43
2019-05-19T05:05:02.606Z,21.74
2019-05-19T05:06:02.845Z,15.08
2019-05-19T05:07:03.182Z,16.77
2019-05-19T05:08:03.090Z,13.26
2019-05-19T05:09:03.088Z,18.75
2019-05-19T05:10:02.655Z,14.6
2019-05-19T05:11:02.930Z,17.56
2019-05-19T05:12:02.276Z,14.21
2019-05-19T05:13:02.788Z,14.69
2019-05-19T05:14:03.215Z,15.46
2019-05-19T05:15:02.718Z,16.34
2019-05-19T05:16:03.301Z,27.65
2019-05-19T05:17:02.504Z,14.87
2019-05-19T05:18:02.511Z,17.06
2019-05-19T05:19:02.897Z,13.71
2019-05-19T05:20:03.083Z,16.82
2019-05-19T05:21:02.571Z,12.69
2019-05-19T05:22:03.142Z,16.55
2019-05-19T05:23:02.615Z,15.32
2019-05-19T05:24:02.939Z,14.18
2019-05-19T05:25:02.475Z,13.73
2019-05-19T05:26:03.120Z,15.55
2019-05-19T05:27:02.427Z,13.81
2019-05-19T05:28:02.924Z,13.58
2019-05-19T05:29:02.331Z,14.14
2019-05-19T05:30:03.014Z,13.62
2019-05-19T05:31:02.380Z,21.48
2019-05-19T05:32:02.757Z,21.48
2019-05-19T05:33:03.401Z,13.71
2019-05-19T05:34:02.906Z,13.71
2019-05-19T05:35:03.261Z,13.46
2019-05-19T05:36:02.549Z,13.46
2019-05-19T05:37:03.129Z,11.66
2019-05-19T05:38:02.878Z,13.95
2019-05-19T05:39:03.075Z,13.95
2019-05-19T05:40:02.638Z,12.96
2019-05-19T05:41:02.906Z,12.95
2019-05-19T05:42:02.232Z,11.68
2019-05-19T05:43:03.015Z,16.31
2019-05-19T05:44:02.421Z,11.6
2019-05-19T05:45:02.845Z,14.44
2019-05-19T05:46:02.787Z,13.6
2019-05-19T05:47:02.994Z,11.24
2019-05-19T05:48:02.645Z,14.15
2019-05-19T05:49:03.083Z,14.62
2019-05-19T05:50:03.187Z,13.33
2019-05-19T05:51:02.822Z,14.79
2019-05-19T05:52:03.098Z,12.47
2019-05-19T05:53:02.664Z,14.11
2019-05-19T05:54:02.514Z,13.35
2019-05-19T05:55:02.699Z,17.19
2019-05-19T05:56:03.274Z,14.46
2019-05-19T05:57:02.390Z,14.05
2019-05-19T05:58:03.118Z,14.84
2019-05-19T05:59:02.846Z,12.44
2019-05-19T06:00:02.617Z,13.69
2019-05-19T06:01:03.224Z,12.42
2019-05-19T06:02:02.603Z,12.05
2019-05-19T06:03:02.757Z,12.74
2019-05-19T06:04:02.535Z,10.54
2019-05-19T06:05:02.838Z,9.24
2019-05-19T06:06:02.971Z,12.81
2019-05-19T06:07:02.702Z,9.43
2019-05-19T06:08:02.541Z,10.81
2019-05-19T06:09:02.897Z,9.37
2019-05-19T06:10:02.927Z,11.88
2019-05-19T06:11:03.123Z,8.58
2019-05-19T06:12:02.561Z,10.71
2019-05-19T06:13:03.163Z,14.17
2019-05-19T06:14:02.266Z,12.2
2019-05-19T06:15:02.745Z,10.76
2019-05-19T06:16:03.053Z,11.68
2019-05-19T06:17:02.883Z,8.85
2019-05-19T06:18:03.282Z,13.64
2019-05-19T06:19:02.637Z,10.61
2019-05-19T06:20:03.656Z,11.17
2019-05-19T06:21:02.753Z,12.79
2019-05-19T06:22:02.732Z,12.79
2019-05-19T06:23:02.394Z,10.36
2019-05-19T06:24:02.796Z,10.36
2019-05-19T06:25:03.468Z,10.63
2019-05-19T06:26:02.518Z,10.16
2019-05-19T06:27:03.315Z,10.16
2019-05-19T06:28:02.380Z,12.25
2019-05-19T06:29:03.129Z,10.08
2019-05-19T06:30:02.623Z,14.61
2019-05-19T06:31:02.847Z,12.16
2019-05-19T06:32:02.764Z,11.52
2019-05-19T06:33:02.969Z,13.41
2019-05-19T06:34:02.716Z,10.73
2019-05-19T06:35:03.221Z,12.06
2019-05-19T06:36:02.781Z,9.48
2019-05-19T06:37:02.884Z,16.25
2019-05-19T06:38:03.060Z,10.21
2019-05-19T06:39:03.251Z,22.54
2019-05-19T06:40:02.781Z,11.53
2019-05-19T06:41:02.343Z,12.3
2019-05-19T06:42:03.037Z,8.92
2019-05-19T06:43:02.869Z,10.35
2019-05-19T06:44:03.503Z,9.21
2019-05-19T06:45:02.736Z,11.01
2019-05-19T06:46:03.108Z,12.31
2019-05-19T06:47:02.587Z,11.15
2019-05-19T06:48:03.192Z,9.64
2019-05-19T06:49:03.223Z,10.49
2019-05-19T06:50:02.853Z,11.68
2019-05-19T06:51:03.144Z,12.44
2019-05-19T06:52:02.810Z,10.84
2019-05-19T06:53:13.160Z,11.81
2019-05-19T06:54:02.702Z,13.59
2019-05-19T06:55:03.290Z,12.24
2019-05-19T06:56:02.587Z,14.1
2019-05-19T06:57:03.260Z,13.21
2019-05-19T06:58:02.787Z,13.16
2019-05-19T06:59:03.104Z,11.77
2019-05-19T07:00:02.966Z,11.82
2019-05-19T07:01:03.293Z,14.02
2019-05-19T07:02:02.697Z,16.88
2019-05-19T07:03:03.123Z,14.36
2019-05-19T07:04:02.801Z,14.26
2019-05-19T07:05:03.141Z,13.67
2019-05-19T07:06:02.380Z,11.85
2019-05-19T07:07:02.930Z,14.45
2019-05-19T07:08:03.123Z,13.06
2019-05-19T07:09:02.394Z,11.08
2019-05-19T07:10:02.911Z,11.87
2019-05-19T07:11:03.260Z,12.81
2019-05-19T07:12:02.703Z,12.1
2019-05-19T07:13:02.579Z,15.03
2019-05-19T07:14:03.152Z,8.81
2019-05-19T07:15:02.753Z,10.77
2019-05-19T07:16:03.068Z,10.77
2019-05-19T07:17:02.700Z,11.94
2019-05-19T07:18:02.980Z,13.88
2019-05-19T07:19:02.510Z,13.88
2019-05-19T07:20:03.038Z,10.78
2019-05-19T07:21:03.227Z,12.02
2019-05-19T07:22:02.693Z,12.02
2019-05-19T07:23:03.046Z,11.56
2019-05-19T07:24:02.461Z,9.86
2019-05-19T07:25:02.843Z,9.15
2019-05-19T07:26:03.006Z,10.57
2019-05-19T07:27:02.880Z,10.98
2019-05-19T07:28:03.100Z,10.61
2019-05-19T07:29:02.563Z,10.96
2019-05-19T07:30:02.779Z,10.28
2019-05-19T07:31:03.014Z,8.46
2019-05-19T07:32:02.706Z,9.94
2019-05-19T07:33:02.978Z,11.84
2019-05-19T07:34:02.913Z,13.62
2019-05-19T07:35:03.176Z,10.62
2019-05-19T07:36:02.548Z,11.51
2019-05-19T07:37:02.777Z,10.89
2019-05-19T07:38:02.332Z,11.67
2019-05-19T07:39:02.620Z,10.05
2019-05-19T07:40:03.161Z,9.16
2019-05-19T07:41:02.672Z,11.61
2019-05-19T07:42:03.312Z,10.11
2019-05-19T07:43:02.608Z,10.58
2019-05-19T07:44:03.085Z,12.55
2019-05-19T07:45:02.633Z,12.53
2019-05-19T07:46:03.185Z,9.18
2019-05-19T07:47:02.395Z,10.62
2019-05-19T07:48:02.501Z,11.02
2019-05-19T07:49:03.001Z,10.51
2019-05-19T07:50:02.453Z,11.02
2019-05-19T07:51:02.790Z,14.58
2019-05-19T07:52:02.574Z,10.98
2019-05-19T07:53:03.274Z,9.96
2019-05-19T07:54:02.892Z,9.05
2019-05-19T07:55:02.850Z,12.18
2019-05-19T07:56:03.007Z,8.77
2019-05-19T07:57:02.687Z,9.65
2019-05-19T07:58:02.661Z,8.37
2019-05-19T07:59:02.901Z,10.52
2019-05-19T08:00:02.693Z,8.59
2019-05-19T08:01:03.270Z,8.11
2019-05-19T08:02:02.697Z,9.58
2019-05-19T08:03:03.125Z,6.51
2019-05-19T08:04:02.883Z,6.51
2019-05-19T08:05:03.196Z,11.09
2019-05-19T08:06:02.636Z,7.62
2019-05-19T08:07:03.252Z,7.62
2019-05-19T08:08:02.583Z,8.84
2019-05-19T08:09:03.262Z,8.32
2019-05-19T08:10:02.746Z,8.32
2019-05-19T08:11:03.169Z,10.85
2019-05-19T08:12:02.790Z,8.82
2019-05-19T08:13:03.291Z,8.75
2019-05-19T08:14:02.706Z,8.89
2019-05-19T08:15:03.231Z,10.11
2019-05-19T08:16:02.179Z,8.86
2019-05-19T08:17:02.895Z,9.57
2019-05-19T08:18:03.118Z,8.37
2019-05-19T08:19:02.664Z,9.12
2019-05-19T08:20:03.342Z,8.24
2019-05-19T08:21:02.449Z,7.5
2019-05-19T08:22:02.651Z,8.71
2019-05-19T08:23:03.085Z,9.94
2019-05-19T08:24:02.849Z,8.38
2019-05-19T08:25:02.905Z,9.22
2019-05-19T08:26:02.982Z,7.59
2019-05-19T08:27:02.557Z,8.89
2019-05-19T08:28:08.132Z,9.42
2019-05-19T08:29:02.186Z,9.81
2019-05-19T08:30:02.860Z,9.58
2019-05-19T08:31:02.799Z,13.24
2019-05-19T08:32:03.053Z,7.89
2019-05-19T08:33:02.401Z,9.7
2019-05-19T08:34:02.788Z,14.27
2019-05-19T08:35:04.412Z,8.37
2019-05-19T08:36:03.300Z,8.19
2019-05-19T08:37:02.567Z,10.43
2019-05-19T08:38:02.289Z,7.19
2019-05-19T08:39:03.058Z,7.74
2019-05-19T08:40:02.686Z,6.25
2019-05-19T08:41:03.200Z,6.25
2019-05-19T08:42:02.417Z,7.49
2019-05-19T08:43:02.921Z,7.49
2019-05-19T08:44:02.566Z,8.8
2019-05-19T08:45:03.101Z,8.86
2019-05-19T08:46:02.817Z,9.45
2019-05-19T08:47:02.983Z,10.19
2019-05-19T08:48:02.618Z,7.8
2019-05-19T08:49:03.209Z,6.84
2019-05-19T08:50:02.442Z,6.89
2019-05-19T08:51:03.154Z,7.46
2019-05-19T08:52:02.599Z,9.55
2019-05-19T08:53:02.999Z,6.6
2019-05-19T08:54:14.113Z,7.76
2019-05-19T08:55:03.291Z,8.43
2019-05-19T08:56:02.924Z,7.84
2019-05-19T08:57:03.190Z,9.05
2019-05-19T08:58:02.654Z,8
2019-05-19T08:59:02.918Z,10.97
2019-05-19T09:00:02.870Z,8.36
2019-05-19T09:01:02.024Z,6.72
2019-05-19T09:02:02.904Z,8.44
2019-05-19T09:03:02.948Z,8.71
2019-05-19T09:04:02.595Z,8.93
2019-05-19T09:05:03.215Z,9.34
2019-05-19T09:06:02.716Z,9.09
2019-05-19T09:07:02.347Z,9.24
2019-05-19T09:08:02.857Z,8.39
2019-05-19T09:09:02.367Z,7.69
2019-05-19T09:10:03.117Z,9.94
2019-05-19T09:11:02.575Z,7.09
2019-05-19T09:12:02.841Z,8.51
2019-05-19T09:13:03.017Z,6.91
2019-05-19T09:14:02.649Z,7.82
2019-05-19T09:15:03.070Z,8.01
2019-05-19T09:16:02.906Z,8.01
2019-05-19T09:17:03.346Z,10.08
2019-05-19T09:18:02.824Z,13.29
2019-05-19T09:19:03.235Z,13.29
2019-05-19T09:20:03.099Z,8.59
2019-05-19T09:21:03.245Z,7.67
2019-05-19T09:22:03.111Z,7.14
2019-05-19T09:23:02.498Z,8.19
2019-05-19T09:24:02.923Z,9.42
2019-05-19T09:25:02.583Z,10.42
2019-05-19T09:26:02.848Z,9.72
2019-05-19T09:27:02.450Z,8.78
2019-05-19T09:28:02.939Z,8.25
2019-05-19T09:29:02.777Z,7.34
2019-05-19T09:30:02.630Z,8.4
2019-05-19T09:31:03.328Z,7.07
2019-05-19T09:32:02.788Z,7.09
2019-05-19T09:33:03.278Z,7.93
2019-05-19T09:34:02.667Z,8.32
2019-05-19T09:35:02.866Z,6.18
2019-05-19T09:36:02.263Z,7.45
2019-05-19T09:37:03.045Z,6.7
2019-05-19T09:38:02.306Z,6.81
2019-05-19T09:39:03.232Z,7.33
2019-05-19T09:40:02.834Z,6.33
2019-05-19T09:41:03.092Z,8.71
2019-05-19T09:42:03.158Z,10.26
2019-05-19T09:43:02.988Z,7.98
2019-05-19T09:44:03.307Z,6.75
2019-05-19T09:45:02.878Z,6.55
2019-05-19T09:46:02.364Z,6.02
2019-05-19T09:47:02.831Z,7.51
2019-05-19T09:48:02.979Z,6.27
2019-05-19T09:49:03.396Z,8.52
2019-05-19T09:50:03.095Z,6.23
2019-05-19T09:51:02.629Z,5.58
2019-05-19T09:52:03.049Z,7.53
2019-05-19T09:53:02.670Z,7.53
2019-05-19T09:54:02.897Z,6.91
2019-05-19T09:55:02.819Z,6.91
2019-05-19T09:56:03.074Z,5.9
2019-05-19T09:57:02.962Z,5.9
2019-05-19T09:58:02.371Z,6.3
2019-05-19T09:59:02.997Z,7.32
2019-05-19T10:00:02.643Z,7.32
2019-05-19T10:01:03.142Z,8.19
2019-05-19T10:02:02.754Z,6.44
2019-05-19T10:03:03.333Z,6.44
2019-05-19T10:04:03.308Z,5.46
2019-05-19T10:05:02.510Z,10.76
2019-05-19T10:06:03.112Z,5.34
2019-05-19T10:07:03.432Z,6.48
2019-05-19T10:08:03.237Z,7.22
2019-05-19T10:09:03.098Z,5.78
2019-05-19T10:10:02.755Z,5.96
2019-05-19T10:11:02.727Z,4.71
2019-05-19T10:12:02.664Z,6.27
2019-05-19T10:13:01.865Z,5.81
2019-05-19T10:14:02.533Z,5.3
2019-05-19T10:15:03.174Z,5.29
2019-05-19T10:16:02.985Z,32.02
2019-05-19T10:17:02.784Z,4.51
2019-05-19T10:18:02.324Z,5.09
2019-05-19T10:19:02.435Z,6.62
2019-05-19T10:20:03.086Z,4.05
2019-05-19T10:21:03.336Z,4.12
2019-05-19T10:22:03.080Z,5.59
2019-05-19T10:23:02.477Z,6.16
2019-05-19T10:24:02.633Z,5.02
2019-05-19T10:25:20.186Z,5.97
2019-05-19T10:26:03.267Z,5.61
2019-05-19T10:27:02.909Z,5.88
2019-05-19T10:28:02.451Z,4.61
2019-05-19T10:29:02.551Z,4.8
2019-05-19T10:30:03.109Z,5.43
2019-05-19T10:31:02.489Z,6.32
2019-05-19T10:32:02.995Z,4.71
2019-05-19T10:33:02.470Z,4.89
2019-05-19T10:34:02.619Z,5.84
2019-05-19T10:35:02.595Z,5.84
2019-05-19T10:36:03.024Z,6.08
2019-05-19T10:37:02.087Z,4.74
2019-05-19T10:38:02.569Z,6.95
2019-05-19T10:39:03.148Z,5.38
2019-05-19T10:40:02.925Z,5.33
2019-05-19T10:41:03.258Z,5.96
2019-05-19T10:42:03.261Z,6.08
2019-05-19T10:43:03.233Z,5.96
2019-05-19T10:44:02.518Z,6.93
2019-05-19T10:45:03.149Z,7.31
2019-05-19T10:46:02.620Z,6.58
2019-05-19T10:47:02.581Z,6.95
2019-05-19T10:48:03.099Z,5.5
2019-05-19T10:49:02.685Z,9.04
2019-05-19T10:50:02.381Z,7.39
2019-05-19T10:51:03.269Z,4.96
2019-05-19T10:52:02.701Z,5.64
2019-05-19T10:53:03.202Z,4.69
2019-05-19T10:54:02.172Z,5.26
2019-05-19T10:55:02.912Z,4.74
2019-05-19T10:56:03.178Z,5.65
2019-05-19T10:57:02.839Z,5.64
2019-05-19T10:58:03.016Z,6.02
2019-05-19T10:59:02.845Z,4.85
2019-05-19T11:00:03.347Z,5.79
2019-05-19T11:01:02.679Z,7.95
2019-05-19T11:02:03.186Z,5.81
2019-05-19T11:03:03.353Z,7.14
2019-05-19T11:04:03.203Z,6.95
2019-05-19T11:05:02.588Z,7.91
2019-05-19T11:06:02.882Z,7.71
2019-05-19T11:07:02.214Z,6.06
2019-05-19T11:08:03.170Z,8.66
2019-05-19T11:09:02.619Z,9.51
2019-05-19T11:10:03.384Z,5.94
2019-05-19T11:11:02.978Z,5.85
2019-05-19T11:12:02.803Z,6.19
2019-05-19T11:13:02.779Z,6.19
2019-05-19T11:14:02.724Z,5.24
2019-05-19T11:15:03.224Z,8.32
2019-05-19T11:16:02.748Z,8.32
2019-05-19T11:17:02.963Z,6.09
2019-05-19T11:18:02.343Z,5.26
2019-05-19T11:19:02.991Z,5.26
2019-05-19T11:20:02.796Z,5.83
2019-05-19T11:21:03.112Z,5.45
2019-05-19T11:22:02.359Z,7.04
2019-05-19T11:23:02.839Z,7.04
2019-05-19T11:24:02.513Z,8.41
2019-05-19T11:25:02.984Z,8.62
2019-05-19T11:26:03.350Z,4.9
2019-05-19T11:27:02.570Z,5.48
2019-05-19T11:28:03.108Z,5.23
2019-05-19T11:29:02.743Z,6.51
2019-05-19T11:30:02.858Z,4.68
2019-05-19T11:31:02.971Z,7.24
2019-05-19T11:32:02.649Z,4.98
2019-05-19T11:33:02.453Z,7.89
2019-05-19T11:34:02.722Z,4.99
2019-05-19T11:35:03.485Z,6.68
2019-05-19T11:36:02.959Z,5.59
2019-05-19T11:37:03.171Z,5.89
2019-05-19T11:38:02.511Z,6.21
2019-05-19T11:39:03.446Z,8.09
2019-05-19T11:40:02.946Z,5.74
2019-05-19T11:41:02.582Z,7.18
2019-05-19T11:42:02.571Z,8.12
2019-05-19T11:43:03.416Z,5.95
2019-05-19T11:44:02.866Z,7.7
2019-05-19T11:45:03.216Z,5.56
2019-05-19T11:46:02.849Z,6.64
2019-05-19T11:47:02.594Z,6.8
2019-05-19T11:48:02.985Z,9.45
2019-05-19T11:49:02.707Z,5.07
2019-05-19T11:50:02.309Z,4.78
2019-05-19T11:51:02.574Z,4.65
2019-05-19T11:52:03.147Z,10.27
2019-05-19T11:53:02.407Z,8.72
2019-05-19T11:54:03.011Z,5.83
2019-05-19T11:55:03.197Z,8.55
2019-05-19T11:56:06.491Z,5.6
2019-05-19T11:57:03.281Z,4.57
2019-05-19T11:58:02.605Z,5.64
2019-05-19T11:59:03.107Z,9.01
2019-05-19T12:00:03.413Z,5.95
2019-05-19T12:01:02.826Z,6.51
2019-05-19T12:02:02.448Z,5.61
2019-05-19T12:03:02.577Z,10.14
2019-05-19T12:04:03.427Z,4.15
2019-05-19T12:05:02.598Z,4.31
2019-05-19T12:06:03.088Z,8.59
2019-05-19T12:07:02.529Z,5.59
2019-05-19T12:08:02.736Z,10.29
2019-05-19T12:09:03.444Z,5.55
2019-05-19T12:10:03.363Z,4.62
2019-05-19T12:11:03.111Z,4.82
2019-05-19T12:12:02.533Z,5.61
2019-05-19T12:13:02.870Z,4.58
2019-05-19T12:14:02.675Z,5.81
2019-05-19T12:15:03.218Z,5.63
2019-05-19T12:16:02.385Z,4.96
2019-05-19T12:17:02.388Z,5.31
2019-05-19T12:18:02.519Z,5.14
2019-05-19T12:19:02.929Z,5.82
2019-05-19T12:20:03.196Z,5.95
2019-05-19T12:21:02.854Z,5
2019-05-19T12:22:03.085Z,5.69
2019-05-19T12:23:03.024Z,5.64
2019-05-19T12:24:03.293Z,5.37
2019-05-19T12:25:02.822Z,5.46
2019-05-19T12:26:03.082Z,4.99
2019-05-19T12:27:03.243Z,6.97
2019-05-19T12:28:02.838Z,6.1
2019-05-19T12:29:02.389Z,5.71
2019-05-19T12:30:02.224Z,5.54
2019-05-19T12:31:02.421Z,5.49
2019-05-19T12:32:02.936Z,5.49
2019-05-19T12:33:03.364Z,4.66
2019-05-19T12:34:02.682Z,6.84
2019-05-19T12:35:02.485Z,6.84
2019-05-19T12:36:02.677Z,6.38
2019-05-19T12:37:03.235Z,4.78
2019-05-19T12:38:02.545Z,6.74
2019-05-19T12:39:02.518Z,6.74
2019-05-19T12:40:02.728Z,5.16
2019-05-19T12:41:02.846Z,6.1
2019-05-19T12:42:02.386Z,6.1
2019-05-19T12:43:02.951Z,5.34
2019-05-19T12:44:02.661Z,7.07
2019-05-19T12:45:03.266Z,7.07
2019-05-19T12:46:02.757Z,5.18
2019-05-19T12:47:02.543Z,5.7
2019-05-19T12:48:02.250Z,6.16
2019-05-19T12:49:02.799Z,6.37
2019-05-19T12:50:02.830Z,8.32
2019-05-19T12:51:02.938Z,7.15
2019-05-19T12:52:02.412Z,4.74
2019-05-19T12:53:02.727Z,5.95
2019-05-19T12:54:03.445Z,4.79
2019-05-19T12:55:02.452Z,5.52
2019-05-19T12:56:02.560Z,5.24
2019-05-19T12:57:03.011Z,5.82
2019-05-19T12:58:02.656Z,5.36
2019-05-19T12:59:02.797Z,5.87
2019-05-19T13:00:02.482Z,5.54
2019-05-19T13:01:03.007Z,7.54
2019-05-19T13:02:02.319Z,6.12
2019-05-19T13:03:03.419Z,6.04
2019-05-19T13:04:03.025Z,6.04
2019-05-19T13:05:05.249Z,6.16
2019-05-19T13:06:03.193Z,6.46
2019-05-19T13:07:02.739Z,4.78
2019-05-19T13:08:03.559Z,7.02
2019-05-19T13:09:02.602Z,6.16